createdAt,value
2023-03-12T00:01:21.891Z,17.50
2023-03-12T00:03:25.252Z,17.30
2023-03-12T00:05:27.966Z,17.10
2023-03-12T00:07:30.406Z,20.40
2023-03-12T00:09:36.008Z,14.63
2023-03-12T00:11:38.367Z,16.50
2023-03-12T00:13:40.967Z,18.35
2023-03-12T00:15:43.397Z,13.35
2023-03-12T00:17:45.725Z,15.63
2023-03-12T00:19:52.966Z,16.40
2023-03-12T00:21:55.486Z,13.50
2023-03-12T00:23:58.253Z,14.30
2023-03-12T00:26:03.012Z,12.10
2023-03-12T00:28:05.650Z,14.75
2023-03-12T00:30:09.245Z,13.60
2023-03-12T00:32:11.658Z,13.32
2023-03-12T00:34:14.339Z,12.40
2023-03-12T00:36:18.179Z,11.52
2023-03-12T00:38:20.482Z,13.02
2023-03-12T00:40:22.791Z,12.65
2023-03-12T00:42:25.087Z,13.40
2023-03-12T00:44:28.000Z,13.20
2023-03-12T00:46:30.466Z,14.20
2023-03-12T00:48:32.881Z,9.35
2023-03-12T00:50:35.491Z,10.77
2023-03-12T00:52:37.925Z,11.23
2023-03-12T00:54:40.648Z,13.82
2023-03-12T00:56:43.044Z,13.82
2023-03-12T00:58:46.694Z,14.05
2023-03-12T01:00:49.232Z,17.42
2023-03-12T01:02:51.559Z,14.55
2023-03-12T01:04:53.930Z,12.23
2023-03-12T01:06:56.642Z,13.02
2023-03-12T01:08:59.051Z,16.67
2023-03-12T01:11:03.527Z,10.15
2023-03-12T01:13:05.885Z,16.13
2023-03-12T01:15:09.298Z,16.85
2023-03-12T01:17:11.573Z,11.70
2023-03-12T01:19:13.865Z,15.35
2023-03-12T01:21:16.332Z,13.27
2023-03-12T01:23:19.013Z,16.75
2023-03-12T01:25:23.087Z,10.70
2023-03-12T01:27:25.646Z,13.40
2023-03-12T01:29:28.173Z,15.68
2023-03-12T01:31:30.555Z,15.70
2023-03-12T01:33:33.103Z,11.32
2023-03-12T01:35:39.818Z,15.38
2023-03-12T01:37:42.242Z,16.80
2023-03-12T01:39:44.648Z,13.05
2023-03-12T01:41:47.049Z,12.45
2023-03-12T01:43:49.611Z,14.25
2023-03-12T01:45:58.214Z,14.98
2023-03-12T01:48:00.647Z,19.55
2023-03-12T01:50:04.844Z,15.15
2023-03-12T01:52:09.543Z,18.65
2023-03-12T01:54:20.925Z,19.55
2023-03-12T01:56:27.361Z,16.23
2023-03-12T01:58:34.249Z,14.27
2023-03-12T02:00:36.655Z,16.95
2023-03-12T02:02:40.645Z,15.40
2023-03-12T02:04:45.445Z,13.48
2023-03-12T02:06:57.479Z,16.85
2023-03-12T02:09:02.279Z,14.52
2023-03-12T02:11:04.886Z,13.52
2023-03-12T02:13:08.124Z,13.65
2023-03-12T02:15:12.140Z,18.00
2023-03-12T02:17:14.840Z,12.73
2023-03-12T02:19:27.482Z,13.70
2023-03-12T02:21:34.088Z,19.17
2023-03-12T02:23:46.176Z,15.52
2023-03-12T02:25:52.171Z,15.10
2023-03-12T02:27:56.846Z,15.18
2023-03-12T02:30:00.250Z,18.67
2023-03-12T02:32:05.158Z,13.80
2023-03-12T02:34:07.641Z,13.68
2023-03-12T02:36:10.394Z,17.35
2023-03-12T02:38:19.045Z,16.05
2023-03-12T02:40:29.726Z,17.50
2023-03-12T02:42:32.601Z,18.38
2023-03-12T02:44:36.969Z,14.45
2023-03-12T02:46:44.167Z,16.95
2023-03-12T02:48:46.683Z,23.20
2023-03-12T02:50:49.126Z,19.00
2023-03-12T02:52:51.482Z,21.20
2023-03-12T02:54:54.079Z,17.90
2023-03-12T02:56:57.457Z,18.23
2023-03-12T02:59:02.579Z,22.48
2023-03-12T03:01:06.584Z,22.02
2023-03-12T03:03:09.243Z,21.20
2023-03-12T03:05:12.815Z,19.50
2023-03-12T03:07:15.322Z,21.15
2023-03-12T03:09:18.089Z,18.13
2023-03-12T03:11:24.602Z,26.20
2023-03-12T03:13:27.045Z,15.20
2023-03-12T03:15:30.114Z,23.05
2023-03-12T03:17:32.640Z,23.50
2023-03-12T03:19:35.056Z,17.30
2023-03-12T03:21:37.976Z,24.48
2023-03-12T03:23:40.413Z,24.85
2023-03-12T03:25:43.047Z,20.13
2023-03-12T03:27:45.486Z,25.50
2023-03-12T03:31:50.401Z,30.95
2023-03-12T03:33:52.812Z,32.33
2023-03-12T03:35:56.678Z,18.02
2023-03-12T03:37:59.206Z,26.48
2023-03-12T03:40:01.609Z,18.40
2023-03-12T03:42:04.020Z,19.77
2023-03-12T03:44:08.286Z,26.00
2023-03-12T03:46:12.326Z,21.75
2023-03-12T03:48:15.362Z,13.57
2023-03-12T03:50:17.926Z,21.50
2023-03-12T03:52:20.324Z,27.30
2023-03-12T03:54:22.601Z,19.45
2023-03-12T03:56:25.122Z,22.02
2023-03-12T03:58:27.561Z,23.88
2023-03-12T04:00:29.889Z,22.60
2023-03-12T04:02:32.341Z,25.08
2023-03-12T04:04:34.730Z,28.55
2023-03-12T04:06:37.411Z,21.73
2023-03-12T04:08:40.642Z,25.50
2023-03-12T04:10:43.133Z,23.70
2023-03-12T04:12:45.447Z,30.90
2023-03-12T04:14:47.720Z,24.98
2023-03-12T04:16:50.177Z,22.58
2023-03-12T04:18:52.519Z,26.25
2023-03-12T04:20:55.467Z,19.35
2023-03-12T04:22:59.009Z,36.00
2023-03-12T04:25:01.923Z,17.80
2023-03-12T04:27:04.641Z,26.85
2023-03-12T04:29:07.689Z,21.30
2023-03-12T04:31:12.842Z,34.00
2023-03-12T04:33:15.254Z,26.83
2023-03-12T04:35:17.735Z,23.98
2023-03-12T04:37:20.039Z,32.50
2023-03-12T04:39:22.375Z,22.17
2023-03-12T04:41:25.081Z,35.03
2023-03-12T04:43:29.285Z,30.48
2023-03-12T04:45:31.725Z,22.55
2023-03-12T04:47:34.648Z,24.80
2023-03-12T04:49:39.852Z,25.50
2023-03-12T04:51:42.335Z,26.25
2023-03-12T04:53:44.783Z,34.08
2023-03-12T04:55:47.320Z,24.75
2023-03-12T04:57:49.930Z,29.88
2023-03-12T04:59:52.687Z,37.78
2023-03-12T05:01:55.213Z,33.78
2023-03-12T05:03:57.789Z,30.15
2023-03-12T05:06:00.352Z,25.23
2023-03-12T05:08:04.109Z,37.80
2023-03-12T05:10:07.649Z,39.30
2023-03-12T05:12:11.343Z,33.22
2023-03-12T05:14:13.776Z,35.38
2023-03-12T05:16:16.842Z,43.85
2023-03-12T05:18:20.890Z,37.38
2023-03-12T05:20:23.330Z,28.35
2023-03-12T05:22:25.648Z,37.45
2023-03-12T05:24:29.568Z,35.00
2023-03-12T05:26:33.621Z,38.33
2023-03-12T05:28:36.135Z,32.22
2023-03-12T05:30:40.256Z,29.98
2023-03-12T05:32:42.789Z,35.20
2023-03-12T05:34:45.295Z,33.47
2023-03-12T05:36:47.681Z,27.42
2023-03-12T05:38:49.969Z,40.17
2023-03-12T05:40:55.698Z,35.60
2023-03-12T05:42:58.185Z,32.55
2023-03-12T05:45:00.941Z,36.45
2023-03-12T05:47:03.385Z,33.35
2023-03-12T05:49:05.734Z,27.05
2023-03-12T05:51:08.465Z,29.42
2023-03-12T05:53:11.500Z,39.00
2023-03-12T05:55:14.245Z,42.80
2023-03-12T05:57:16.581Z,34.28
2023-03-12T05:59:19.052Z,37.90
2023-03-12T06:01:25.606Z,44.78
2023-03-12T06:03:28.288Z,32.28
2023-03-12T06:05:31.722Z,41.28
2023-03-12T06:07:34.129Z,27.75
2023-03-12T06:09:36.807Z,45.22
2023-03-12T06:11:39.380Z,44.00
2023-03-12T06:13:42.249Z,29.17
2023-03-12T06:15:45.288Z,41.00
2023-03-12T06:17:47.737Z,36.03
2023-03-12T06:19:53.163Z,37.88
2023-03-12T06:21:55.560Z,40.83
2023-03-12T06:23:58.561Z,32.47
2023-03-12T06:26:00.928Z,43.00
2023-03-12T06:28:03.362Z,34.80
2023-03-12T06:30:06.608Z,34.08
2023-03-12T06:32:09.444Z,36.47
2023-03-12T06:34:11.801Z,35.92
2023-03-12T06:36:15.841Z,35.88
2023-03-12T06:38:18.280Z,40.35
2023-03-12T06:40:20.890Z,38.97
2023-03-12T06:42:23.246Z,38.90
2023-03-12T06:44:25.929Z,36.40
2023-03-12T06:46:28.385Z,39.15
2023-03-12T06:48:34.441Z,40.00
2023-03-12T06:50:36.841Z,37.50
2023-03-12T06:52:40.856Z,41.20
2023-03-12T06:54:43.358Z,41.67
2023-03-12T06:56:46.382Z,41.65
2023-03-12T06:58:49.440Z,50.97
2023-03-12T07:00:53.289Z,36.05
2023-03-12T07:02:55.642Z,36.45
2023-03-12T07:04:58.355Z,42.33
2023-03-12T07:07:00.809Z,41.25
2023-03-12T07:09:03.476Z,34.70
2023-03-12T07:11:05.781Z,36.40
2023-03-12T07:13:08.376Z,43.42
2023-03-12T07:15:11.497Z,36.15
2023-03-12T07:17:13.967Z,37.00
2023-03-12T07:19:16.575Z,36.03
2023-03-12T07:21:23.056Z,41.42
2023-03-12T07:23:25.455Z,48.10
2023-03-12T07:25:27.818Z,37.80
2023-03-12T07:27:30.411Z,39.53
2023-03-12T07:29:32.653Z,32.83
2023-03-12T07:31:35.122Z,36.08
2023-03-12T07:33:37.942Z,38.03
2023-03-12T07:35:40.810Z,41.85
2023-03-12T07:37:43.218Z,36.22
2023-03-12T07:39:45.664Z,33.03
2023-03-12T07:41:48.299Z,38.95
2023-03-12T07:43:50.771Z,37.90
2023-03-12T07:45:53.409Z,35.15
2023-03-12T07:47:55.927Z,42.17
2023-03-12T07:49:58.668Z,44.75
2023-03-12T07:52:01.301Z,33.88
2023-03-12T07:54:03.649Z,39.80
2023-03-12T07:56:06.729Z,39.70
2023-03-12T07:58:09.379Z,44.03
2023-03-12T08:00:12.927Z,37.55
2023-03-12T08:02:15.592Z,36.58
2023-03-12T08:04:18.114Z,34.10
2023-03-12T08:06:21.470Z,37.25
2023-03-12T08:08:23.790Z,39.05
2023-03-12T08:10:26.518Z,36.92
2023-03-12T08:12:29.174Z,37.10
2023-03-12T08:14:32.490Z,26.67
2023-03-12T08:16:35.063Z,22.90
2023-03-12T08:18:37.936Z,35.72
2023-03-12T08:20:40.402Z,37.60
2023-03-12T08:22:42.592Z,46.35
2023-03-12T08:24:44.767Z,30.80
2023-03-12T08:26:47.164Z,35.30
2023-03-12T08:28:49.297Z,34.78
2023-03-12T08:30:54.111Z,37.70
2023-03-12T08:32:56.368Z,31.02
2023-03-12T08:34:58.776Z,41.47
2023-03-12T08:37:01.681Z,30.25
2023-03-12T08:39:04.863Z,36.20
2023-03-12T08:41:07.225Z,36.30
2023-03-12T08:43:09.579Z,32.47
2023-03-12T08:45:13.068Z,33.47
2023-03-12T08:47:15.319Z,37.88
2023-03-12T08:49:18.124Z,42.70
2023-03-12T08:51:20.358Z,32.30
2023-03-12T08:53:22.940Z,27.92
2023-03-12T08:55:26.469Z,36.22
2023-03-12T08:57:29.388Z,38.28
2023-03-12T08:59:31.568Z,44.00
2023-03-12T09:01:33.940Z,48.03
2023-03-12T09:03:36.182Z,38.65
2023-03-12T09:05:38.444Z,32.05
2023-03-12T09:07:41.593Z,34.05
2023-03-12T09:09:43.791Z,34.40
2023-03-12T09:11:45.995Z,31.85
2023-03-12T09:14:16.855Z,36.78
2023-03-12T09:16:10.359Z,33.60
2023-03-12T09:18:12.677Z,35.90
2023-03-12T09:20:15.088Z,37.45
2023-03-12T09:22:17.647Z,38.38
2023-03-12T09:24:20.505Z,35.63
2023-03-12T09:26:22.747Z,32.17
2023-03-12T09:28:25.002Z,37.33
2023-03-12T09:30:30.377Z,29.38
2023-03-12T09:32:32.838Z,29.77
2023-03-12T09:34:36.045Z,31.98
2023-03-12T09:36:38.393Z,34.75
2023-03-12T09:38:40.750Z,38.90
2023-03-12T09:40:47.895Z,31.98
2023-03-12T09:42:52.765Z,40.95
2023-03-12T09:44:57.830Z,35.08
2023-03-12T09:47:08.518Z,30.23
2023-03-12T09:49:20.031Z,27.70
2023-03-12T09:51:28.454Z,28.65
2023-03-12T09:53:37.954Z,27.30
2023-03-12T09:55:43.749Z,39.03
2023-03-12T09:57:47.557Z,23.83
2023-03-12T09:59:51.280Z,32.63
2023-03-12T10:01:58.804Z,28.95
2023-03-12T10:04:07.228Z,34.55
2023-03-12T10:06:10.514Z,30.77
2023-03-12T10:08:25.186Z,21.55
2023-03-12T10:10:36.913Z,30.45
2023-03-12T10:12:48.109Z,26.48
2023-03-12T10:15:00.561Z,28.35
2023-03-12T10:17:09.149Z,30.35
2023-03-12T10:19:28.417Z,29.05
2023-03-12T10:21:31.315Z,43.20
2023-03-12T10:23:39.815Z,27.63
2023-03-12T10:25:48.898Z,36.85
2023-03-12T10:27:51.229Z,34.95
2023-03-12T10:29:55.259Z,27.30
2023-03-12T10:32:03.065Z,31.65
2023-03-12T10:34:17.687Z,27.45
2023-03-12T10:36:25.449Z,35.22
2023-03-12T10:38:30.325Z,31.10
2023-03-12T10:40:35.043Z,27.95
2023-03-12T10:42:37.479Z,25.35
2023-03-12T10:44:40.529Z,36.72
2023-03-12T10:46:51.813Z,29.48
2023-03-12T10:49:17.055Z,31.20
2023-03-12T10:51:19.368Z,26.33
2023-03-12T10:53:22.802Z,30.42
2023-03-12T10:55:29.656Z,36.22
2023-03-12T10:57:41.044Z,39.65
2023-03-12T10:59:46.349Z,31.27
2023-03-12T11:01:52.084Z,25.00
2023-03-12T11:04:10.897Z,25.95
2023-03-12T11:06:19.409Z,34.65
2023-03-12T11:08:27.300Z,26.92
2023-03-12T11:10:33.990Z,25.80
2023-03-12T11:12:40.038Z,30.40
2023-03-12T11:14:47.232Z,30.08
2023-03-12T11:16:51.232Z,27.90
2023-03-12T11:18:57.760Z,30.35
2023-03-12T11:21:06.298Z,28.13
2023-03-12T11:23:15.659Z,34.30
2023-03-12T11:25:24.134Z,26.10
2023-03-12T11:27:35.103Z,29.42
2023-03-12T11:29:43.778Z,24.70
2023-03-12T11:31:54.354Z,29.48
2023-03-12T11:34:03.404Z,29.08
2023-03-12T11:36:20.929Z,28.25
2023-03-12T11:38:31.568Z,21.38
2023-03-12T11:42:42.668Z,26.95
2023-03-12T11:44:46.873Z,23.98
2023-03-12T11:46:53.586Z,30.08
2023-03-12T11:48:59.300Z,23.60
2023-03-12T11:51:14.109Z,22.52
2023-03-12T11:53:20.928Z,33.42
2023-03-12T11:55:27.636Z,29.80
2023-03-12T11:57:33.231Z,30.65
2023-03-12T11:59:43.860Z,25.88
2023-03-12T12:01:52.316Z,28.42
2023-03-12T12:03:59.117Z,26.40
2023-03-12T12:06:06.721Z,24.40
2023-03-12T12:08:13.367Z,23.52
2023-03-12T12:10:21.788Z,27.33
2023-03-12T12:12:28.544Z,25.70
2023-03-12T12:14:33.597Z,28.92
2023-03-12T12:16:46.456Z,28.90
2023-03-12T12:18:52.073Z,21.63
2023-03-12T12:20:57.724Z,30.27
2023-03-12T12:23:01.818Z,26.63
2023-03-12T12:25:09.059Z,35.20
2023-03-12T12:27:17.505Z,30.85
2023-03-12T12:29:26.511Z,20.13
2023-03-12T12:31:32.258Z,31.95
2023-03-12T12:33:40.600Z,29.75
2023-03-12T12:35:43.999Z,21.50
2023-03-12T12:37:52.158Z,27.20
2023-03-12T12:40:08.933Z,29.95
2023-03-12T12:42:18.564Z,25.98
2023-03-12T12:44:28.242Z,23.88
2023-03-12T12:46:34.788Z,22.83
2023-03-12T12:48:40.695Z,35.05
2023-03-12T12:50:44.510Z,27.85
2023-03-12T12:52:53.835Z,21.88
2023-03-12T12:55:03.815Z,26.08
2023-03-12T12:57:13.966Z,30.90
2023-03-12T12:59:21.645Z,25.52
2023-03-12T13:01:27.225Z,20.02
2023-03-12T13:03:31.077Z,22.70
2023-03-12T13:05:46.262Z,32.10
2023-03-12T13:07:48.626Z,28.40
2023-03-12T13:09:53.715Z,30.40
2023-03-12T13:11:56.270Z,19.30
2023-03-12T13:14:02.942Z,24.77
2023-03-12T13:16:11.634Z,24.58
2023-03-12T13:18:20.160Z,31.50
2023-03-12T13:20:28.548Z,23.70
2023-03-12T13:22:31.443Z,19.63
2023-03-12T13:24:41.815Z,24.17
2023-03-12T13:26:50.336Z,22.42
2023-03-12T13:29:06.173Z,18.88
2023-03-12T13:31:15.686Z,19.67
2023-03-12T13:33:21.969Z,19.67
2023-03-12T13:35:24.965Z,21.85
2023-03-12T13:37:48.071Z,25.05
2023-03-12T13:39:51.505Z,22.98
2023-03-12T13:41:57.464Z,24.80
2023-03-12T13:44:00.529Z,29.70
2023-03-12T13:46:10.642Z,28.33
2023-03-12T13:48:18.532Z,20.27
2023-03-12T13:50:20.995Z,25.73
2023-03-12T13:52:25.349Z,24.02
2023-03-12T13:54:34.619Z,26.38
2023-03-12T13:56:37.504Z,20.10
2023-03-12T13:58:47.540Z,27.17
2023-03-12T14:00:56.179Z,23.20
2023-03-12T14:03:03.921Z,23.95
2023-03-12T14:05:11.624Z,21.77
2023-03-12T14:07:18.404Z,22.85
2023-03-12T14:09:31.855Z,19.63
2023-03-12T14:11:44.294Z,26.88
2023-03-12T14:13:51.122Z,21.88
2023-03-12T14:16:01.379Z,24.95
2023-03-12T14:18:14.533Z,17.63
2023-03-12T14:20:21.817Z,21.48
2023-03-12T14:22:25.481Z,16.50
2023-03-12T14:24:36.254Z,18.65
2023-03-12T14:28:42.478Z,13.38
2023-03-12T14:30:50.366Z,13.15
2023-03-12T14:32:56.768Z,11.95
2023-03-12T14:35:05.304Z,15.07
2023-03-12T14:37:16.695Z,13.93
2023-03-12T14:39:22.398Z,12.95
2023-03-12T14:41:32.166Z,9.88
2023-03-12T14:43:35.878Z,13.10
2023-03-12T14:45:41.320Z,9.10
2023-03-12T14:47:45.726Z,7.05
2023-03-12T14:49:48.036Z,9.27
2023-03-12T14:51:50.444Z,8.80
2023-03-12T14:53:53.658Z,15.77
2023-03-12T14:56:02.292Z,8.45
2023-03-12T14:58:07.309Z,15.98
2023-03-12T15:00:24.873Z,12.93
2023-03-12T15:02:30.609Z,12.68
2023-03-12T15:04:38.302Z,20.00
2023-03-12T15:06:46.553Z,12.02
2023-03-12T15:08:49.354Z,19.00
2023-03-12T15:10:56.122Z,13.65
2023-03-12T15:13:01.047Z,15.05
2023-03-12T15:15:09.955Z,14.70
2023-03-12T15:17:18.121Z,17.35
2023-03-12T15:19:27.050Z,22.83
2023-03-12T15:21:29.326Z,19.73
2023-03-12T15:23:35.424Z,19.48
2023-03-12T15:25:38.908Z,17.40
2023-03-12T15:27:41.090Z,14.73
2023-03-12T15:29:43.453Z,19.90
2023-03-12T15:31:48.452Z,16.58
2023-03-12T15:33:57.418Z,18.00
2023-03-12T15:36:04.874Z,19.67
2023-03-12T15:38:15.242Z,18.45
2023-03-12T15:40:22.541Z,18.30
2023-03-12T15:42:27.355Z,24.10
2023-03-12T15:44:44.676Z,20.80
2023-03-12T15:46:49.782Z,24.08
2023-03-12T15:48:55.395Z,13.32
2023-03-12T15:50:58.525Z,14.18
2023-03-12T15:53:06.473Z,11.85
2023-03-12T15:55:13.253Z,10.43
2023-03-12T15:57:20.865Z,10.38
2023-03-12T15:59:27.106Z,10.25
2023-03-12T16:01:29.599Z,7.05
2023-03-12T16:03:31.899Z,7.80
2023-03-12T16:05:37.725Z,8.73
2023-03-12T16:07:40.133Z,8.85
2023-03-12T16:09:42.604Z,9.85
2023-03-12T16:11:45.029Z,8.30
2023-03-12T16:13:50.165Z,8.70
2023-03-12T16:15:52.772Z,10.80
2023-03-12T16:17:54.970Z,8.27
2023-03-12T16:19:57.323Z,10.40
2023-03-12T16:22:00.540Z,13.55
2023-03-12T16:24:03.239Z,9.00
2023-03-12T16:26:07.483Z,5.65
2023-03-12T16:28:14.912Z,4.10
2023-03-12T16:30:23.078Z,7.32
2023-03-12T16:32:25.340Z,12.30
2023-03-12T16:34:28.489Z,8.05
2023-03-12T16:36:30.762Z,8.98
2023-03-12T16:38:33.156Z,11.10
2023-03-12T16:40:38.669Z,8.32
2023-03-12T16:42:44.991Z,10.15
2023-03-12T16:44:47.705Z,8.68
2023-03-12T16:46:49.954Z,11.80
2023-03-12T16:48:54.122Z,10.88
2023-03-12T16:50:58.929Z,10.10
2023-03-12T16:53:04.546Z,8.45
2023-03-12T16:55:07.579Z,12.88
2023-03-12T16:57:18.789Z,18.40
2023-03-12T16:59:26.288Z,7.30
2023-03-12T17:01:29.498Z,8.43
2023-03-12T17:03:37.424Z,6.85
2023-03-12T17:05:41.064Z,10.93
2023-03-12T17:07:43.252Z,15.35
2023-03-12T17:09:45.492Z,10.35
2023-03-12T17:11:50.748Z,12.18
2023-03-12T17:13:58.701Z,8.30
2023-03-12T17:16:01.238Z,12.73
2023-03-12T17:18:04.704Z,7.90
2023-03-12T17:20:10.612Z,9.70
2023-03-12T17:22:13.109Z,13.52
2023-03-12T17:24:15.720Z,9.65
2023-03-12T17:26:18.824Z,7.07
2023-03-12T17:28:21.095Z,13.45
2023-03-12T17:30:24.653Z,11.55
2023-03-12T17:32:26.970Z,12.68
2023-03-12T17:34:30.307Z,8.85
2023-03-12T17:36:32.774Z,10.18
2023-03-12T17:38:35.278Z,9.85
2023-03-12T17:40:41.617Z,11.10
2023-03-12T17:42:44.019Z,10.82
2023-03-12T17:44:46.556Z,8.18
2023-03-12T17:46:58.781Z,6.68
2023-03-12T17:49:01.796Z,11.18
2023-03-12T17:51:08.213Z,10.95
2023-03-12T17:53:10.770Z,6.25
2023-03-12T17:55:13.197Z,12.45
2023-03-12T17:57:15.357Z,9.85
2023-03-12T17:59:18.430Z,7.53
2023-03-12T18:01:20.768Z,10.13
2023-03-12T18:03:23.175Z,12.02
2023-03-12T18:05:25.820Z,7.57
2023-03-12T18:07:28.160Z,5.45
2023-03-12T18:09:30.592Z,10.88
2023-03-12T18:11:32.818Z,11.38
2023-03-12T18:13:35.315Z,8.35
2023-03-12T18:15:37.789Z,13.15
2023-03-12T18:17:40.893Z,6.70
2023-03-12T18:19:43.177Z,15.40
2023-03-12T18:21:45.522Z,12.23
2023-03-12T18:23:47.911Z,20.05
2023-03-12T18:25:50.130Z,13.10
2023-03-12T18:27:53.677Z,21.13
2023-03-12T18:29:56.667Z,18.15
2023-03-12T18:31:58.964Z,14.45
2023-03-12T18:34:01.163Z,21.20
2023-03-12T18:36:04.188Z,10.10
2023-03-12T18:38:06.452Z,15.88
2023-03-12T18:40:10.324Z,14.98
2023-03-12T18:42:12.536Z,17.27
2023-03-12T18:44:14.712Z,15.27
2023-03-12T18:46:17.311Z,17.65
2023-03-12T18:48:19.499Z,11.10
2023-03-12T18:50:21.970Z,16.02
2023-03-12T18:52:24.259Z,23.70
2023-03-12T18:54:27.569Z,19.20
2023-03-12T18:56:30.126Z,16.92
2023-03-12T18:58:32.490Z,10.73
2023-03-12T19:00:34.792Z,17.35
2023-03-12T19:02:38.166Z,16.80
2023-03-12T19:04:45.324Z,15.63
2023-03-12T19:06:51.455Z,12.02
2023-03-12T19:08:54.256Z,17.23
2023-03-12T19:10:56.727Z,22.35
2023-03-12T19:12:59.257Z,19.15
2023-03-12T19:15:01.743Z,17.45
2023-03-12T19:17:04.412Z,21.10
2023-03-12T19:19:06.717Z,20.30
2023-03-12T19:21:09.113Z,20.10
2023-03-12T19:23:11.320Z,25.20
2023-03-12T19:25:14.189Z,20.42
2023-03-12T19:27:16.429Z,17.48
2023-03-12T19:29:18.715Z,16.92
2023-03-12T19:31:21.103Z,24.90
2023-03-12T19:33:23.684Z,28.90
2023-03-12T19:35:26.010Z,26.45
2023-03-12T19:37:28.892Z,14.30
2023-03-12T19:39:31.081Z,21.20
2023-03-12T19:41:33.478Z,16.13
2023-03-12T19:43:36.762Z,18.65
2023-03-12T19:45:39.113Z,22.17
2023-03-12T19:47:41.799Z,18.92
2023-03-12T19:49:44.328Z,18.02
2023-03-12T19:51:46.556Z,28.13
2023-03-12T19:53:48.850Z,26.50
2023-03-12T19:55:51.357Z,18.63
2023-03-12T19:57:54.467Z,18.92
2023-03-12T19:59:56.873Z,25.10
2023-03-12T20:02:01.840Z,20.38
2023-03-12T20:04:08.158Z,17.45
2023-03-12T20:06:11.556Z,16.98
2023-03-12T20:08:14.178Z,21.38
2023-03-12T20:10:16.688Z,19.63
2023-03-12T20:12:19.068Z,21.60
2023-03-12T20:14:21.503Z,21.15
2023-03-12T20:16:23.936Z,17.40
2023-03-12T20:18:26.141Z,14.73
2023-03-12T20:20:28.334Z,20.65
2023-03-12T20:22:31.387Z,20.92
2023-03-12T20:24:33.613Z,15.93
2023-03-12T20:26:39.638Z,18.63
2023-03-12T20:28:42.364Z,11.77
2023-03-12T20:30:44.628Z,9.07
2023-03-12T20:32:46.922Z,8.02
2023-03-12T20:34:49.320Z,13.48
2023-03-12T20:36:51.610Z,8.10
2023-03-12T20:38:53.879Z,8.40
2023-03-12T20:40:56.073Z,9.45
2023-03-12T20:42:58.428Z,3.30
2023-03-12T20:45:00.985Z,5.78
2023-03-12T20:47:03.253Z,11.88
2023-03-12T20:49:05.495Z,4.72
2023-03-12T20:51:07.895Z,2.70
2023-03-12T20:53:10.387Z,4.75
2023-03-12T20:55:12.672Z,5.72
2023-03-12T20:57:14.970Z,2.38
2023-03-12T20:59:17.333Z,5.03
2023-03-12T21:01:19.995Z,3.60
2023-03-12T21:03:23.100Z,3.13
2023-03-12T21:05:27.241Z,3.80
2023-03-12T21:07:29.637Z,2.38
2023-03-12T21:09:32.094Z,2.15
2023-03-12T21:11:34.664Z,3.50
2023-03-12T21:13:37.086Z,3.03
2023-03-12T21:15:39.204Z,1.17
2023-03-12T21:17:41.594Z,1.30
2023-03-12T21:19:44.196Z,2.40
2023-03-12T21:21:46.435Z,0.40
2023-03-12T21:23:48.740Z,1.55
2023-03-12T21:25:59.437Z,2.67
2023-03-12T21:28:02.479Z,1.33
2023-03-12T21:30:05.700Z,1.58
2023-03-12T21:32:08.095Z,0.82
2023-03-12T21:34:10.318Z,4.00
2023-03-12T21:36:14.675Z,1.15
2023-03-12T21:38:17.011Z,2.97
2023-03-12T21:40:19.454Z,0.90
2023-03-12T21:42:21.641Z,1.10
2023-03-12T21:44:23.934Z,2.20
2023-03-12T21:46:27.959Z,1.30
2023-03-12T21:48:30.260Z,1.05
2023-03-12T21:50:32.434Z,2.22
2023-03-12T21:52:41.490Z,0.20
2023-03-12T21:54:45.791Z,0.75
2023-03-12T21:56:48.009Z,0.98
2023-03-12T21:58:50.285Z,1.75
2023-03-12T22:00:52.816Z,0.47
2023-03-12T22:02:55.106Z,1.75
2023-03-12T22:05:00.311Z,1.65
2023-03-12T22:07:02.739Z,2.40
2023-03-12T22:09:05.079Z,0.63
2023-03-12T22:11:08.560Z,1.60
2023-03-12T22:13:14.608Z,0.60
2023-03-12T22:15:19.347Z,2.25
2023-03-12T22:17:25.228Z,2.08
2023-03-12T22:19:33.189Z,0.93
2023-03-12T22:21:35.320Z,1.92
2023-03-12T22:23:37.881Z,2.00
2023-03-12T22:25:40.059Z,2.78
2023-03-12T22:27:42.309Z,2.88
2023-03-12T22:29:44.449Z,1.98
2023-03-12T22:31:46.659Z,3.13
2023-03-12T22:33:49.314Z,1.20
2023-03-12T22:35:51.582Z,1.60
2023-03-12T22:37:54.809Z,1.42
2023-03-12T22:40:01.713Z,1.35
2023-03-12T22:42:04.173Z,2.55
2023-03-12T22:44:09.484Z,3.63
2023-03-12T22:46:12.393Z,2.22
2023-03-12T22:48:14.622Z,2.78
2023-03-12T22:50:17.176Z,2.03
2023-03-12T22:52:19.412Z,2.40
2023-03-12T22:54:21.973Z,3.40
2023-03-12T22:56:25.142Z,2.50
2023-03-12T22:58:27.865Z,1.40
2023-03-12T23:00:30.124Z,2.03
2023-03-12T23:02:32.584Z,3.05
2023-03-12T23:04:34.943Z,2.95
2023-03-12T23:06:37.178Z,3.30
2023-03-12T23:08:39.744Z,1.02
2023-03-12T23:10:41.948Z,2.45
2023-03-12T23:12:44.184Z,1.70
2023-03-12T23:14:46.432Z,4.70
2023-03-12T23:16:48.856Z,1.83
2023-03-12T23:18:51.864Z,2.97
2023-03-12T23:20:57.941Z,4.10
2023-03-12T23:23:00.184Z,4.88
2023-03-12T23:25:02.606Z,3.10
2023-03-12T23:27:05.851Z,2.85
2023-03-12T23:29:09.118Z,5.15
2023-03-12T23:31:11.604Z,4.88
2023-03-12T23:33:13.904Z,4.05
2023-03-12T23:35:16.506Z,5.85
2023-03-12T23:37:18.973Z,6.80
2023-03-12T23:39:21.305Z,5.45
2023-03-12T23:41:27.422Z,8.57
2023-03-12T23:43:30.007Z,8.30
2023-03-12T23:45:32.294Z,8.85
2023-03-12T23:47:34.477Z,6.63
2023-03-12T23:49:36.665Z,13.38
2023-03-12T23:51:41.018Z,10.10
2023-03-12T23:53:45.277Z,16.13
2023-03-12T23:55:53.748Z,11.27
2023-03-12T23:57:55.906Z,8.73
2023-03-12T23:59:58.098Z,8.25
